Time;durP1;ratioP1;P1;durP2;ratioP2;P2;SDS_P1;SDS_P2;PMS_P1;PMS_P2;Temp;Humidity;BMP_temperature;BMP_pressure;BME280_temperature;BME280_humidity;BME280_pressure;Samples;Min_cycle;Max_cycle;Signal;HPM_P1;HPM_P2
2022/02/02 00:02:12;;;;;;;15.27;8.27;;;;;;;2.36;100.00;94024.53;4955565;29;21185;-78
2022/02/02 00:04:44;;;;;;;9.57;8.27;;;;;;;2.41;100.00;94025.06;4955390;29;20426;-78
2022/02/02 00:07:26;;;;;;;13.10;8.23;;;;;;;2.53;100.00;94020.78;4955487;29;20451;-79
2022/02/02 00:09:58;;;;;;;16.50;10.67;;;;;;;2.52;100.00;94013.97;4955085;29;20499;-78
2022/02/02 00:12:38;;;;;;;13.50;9.90;;;;;;;2.64;100.00;94020.91;4955328;29;20446;-78
2022/02/02 00:15:28;;;;;;;15.97;8.97;;;;;;;2.71;100.00;94022.16;4955131;29;20454;-78
2022/02/02 00:18:09;;;;;;;11.03;9.60;;;;;;;2.72;99.23;94018.63;4961867;28;20528;-78
2022/02/02 00:20:43;;;;;;;15.90;10.33;;;;;;;2.68;98.80;94009.41;5015181;28;20981;-78
2022/02/02 00:23:16;;;;;;;13.70;9.30;;;;;;;2.76;98.64;94017.47;5015708;28;20458;-77
2022/02/02 00:25:50;;;;;;;16.93;9.17;;;;;;;2.83;98.56;94018.72;5015493;28;21005;-79
2022/02/02 00:31:44;;;;;;;20.37;9.50;;;;;;;2.94;98.17;94016.22;5015113;28;20756;-79
2022/02/02 00:34:13;;;;;;;9.07;8.10;;;;;;;3.02;98.11;94008.75;4966866;28;20910;-78
2022/02/02 00:36:47;;;;;;;11.27;8.50;;;;;;;3.06;97.69;94007.59;5015800;28;20431;-80
2022/02/02 00:39:14;;;;;;;12.03;9.03;;;;;;;3.14;97.16;94006.22;5015314;28;20830;-79
2022/02/02 00:41:59;;;;;;;11.53;8.83;;;;;;;3.22;96.41;94001.34;5015232;28;20442;-79
2022/02/02 00:44:27;;;;;;;11.20;9.20;;;;;;;3.23;95.80;94005.59;5015154;28;20488;-78
2022/02/02 00:46:55;;;;;;;12.60;9.03;;;;;;;3.26;95.85;94008.78;5014895;28;20932;-78
2022/02/02 00:49:24;;;;;;;16.20;8.60;;;;;;;3.29;95.78;94005.97;5014989;28;20431;-78
2022/02/02 00:51:56;;;;;;;16.90;9.77;;;;;;;3.36;95.82;94006.38;5015218;28;20554;-78
2022/02/02 00:54:25;;;;;;;12.87;9.57;;;;;;;3.36;95.61;94011.56;5014868;28;20455;-78
2022/02/02 00:56:52;;;;;;;15.83;10.93;;;;;;;3.23;95.43;94005.59;5014785;28;20941;-79
2022/02/02 00:59:22;;;;;;;17.67;11.17;;;;;;;3.13;95.27;93994.19;5014914;28;20476;-78
2022/02/02 01:01:49;;;;;;;20.33;12.53;;;;;;;2.99;96.07;93983.03;5014267;28;20444;-79
2022/02/02 01:04:16;;;;;;;38.13;20.63;;;;;;;2.94;96.21;93977.34;5013959;28;20448;-78
2022/02/02 01:06:53;;;;;;;38.77;23.10;;;;;;;2.91;96.56;93968.97;5014404;28;20964;-78
2022/02/02 01:09:25;;;;;;;21.87;14.90;;;;;;;2.87;96.43;93970.94;5014692;28;20454;-79
2022/02/02 01:12:18;;;;;;;28.70;13.33;;;;;;;2.74;96.67;93970.13;5013756;28;20435;-79
2022/02/02 01:20:57;;;;;;;26.10;13.87;;;;;;;2.58;97.47;93961.75;5013407;28;20495;-78
2022/02/02 01:28:55;;;;;;;18.53;12.00;;;;;;;2.52;98.07;93957.00;5014250;28;20185;-79
2022/02/02 01:31:22;;;;;;;18.83;10.27;;;;;;;2.49;97.63;93945.91;5014541;28;20443;-79
2022/02/02 01:33:49;;;;;;;18.10;11.93;;;;;;;2.48;98.00;93940.84;5014532;28;20804;-79
2022/02/02 01:37:03;;;;;;;16.53;10.93;;;;;;;2.43;98.71;93942.94;5013955;28;20917;-80
2022/02/02 01:39:32;;;;;;;21.10;11.77;;;;;;;2.43;98.40;93933.41;5014081;28;20567;-79
2022/02/02 01:42:02;;;;;;;17.65;11.15;;;;;;;2.43;98.78;93928.22;5014074;28;20445;-80
2022/02/02 01:44:36;;;;;;;15.07;11.20;;;;;;;2.41;98.17;93921.50;5013843;28;20194;-79
2022/02/02 01:47:05;;;;;;;14.30;10.97;;;;;;;2.34;98.44;93915.91;5014062;28;20643;-78
2022/02/02 01:52:44;;;;;;;22.53;13.30;;;;;;;2.42;99.09;93916.22;5013813;28;20614;-80
2022/02/02 01:55:19;;;;;;;21.13;12.47;;;;;;;2.56;99.34;93909.25;5013565;28;20436;-78
2022/02/02 01:58:01;;;;;;;23.37;13.83;;;;;;;2.69;98.82;93910.06;5014384;28;20810;-78
2022/02/02 02:00:46;;;;;;;19.30;12.37;;;;;;;2.80;97.89;93904.94;5013802;28;20569;-78
2022/02/02 02:03:13;;;;;;;16.17;10.10;;;;;;;2.84;97.44;93908.97;5013794;28;20447;-80
2022/02/02 02:05:40;;;;;;;17.20;10.63;;;;;;;2.85;97.00;93897.66;4979489;28;20964;-79
2022/02/02 02:08:08;;;;;;;18.67;11.47;;;;;;;2.82;96.97;93891.88;5014035;28;20439;-78
2022/02/02 02:10:36;;;;;;;16.90;12.07;;;;;;;2.76;96.42;93887.97;5013422;28;20442;-79
2022/02/02 02:16:45;;;;;;;16.80;13.07;;;;;;;2.71;96.71;93887.47;5013651;28;21223;-78
2022/02/02 02:19:12;;;;;;;18.67;13.53;;;;;;;2.74;96.29;93890.66;5013917;28;20434;-78
2022/02/02 02:21:39;;;;;;;18.43;13.13;;;;;;;2.76;95.98;93882.78;5013278;28;20771;-79
2022/02/02 02:24:08;;;;;;;20.27;13.40;;;;;;;2.86;96.73;93888.13;5015839;28;20851;-78
2022/02/02 02:26:39;;;;;;;19.87;12.93;;;;;;;2.81;95.38;93883.28;5017810;28;20439;-79
2022/02/02 02:29:20;;;;;;;17.83;11.80;;;;;;;2.88;95.42;93888.84;5017597;28;20525;-79
2022/02/02 02:32:29;;;;;;;19.77;12.37;;;;;;;2.92;95.27;93878.19;5018142;28;20453;-80
2022/02/02 02:35:16;;;;;;;22.30;14.30;;;;;;;2.81;94.99;93880.69;5017633;28;20466;-78
2022/02/02 02:38:11;;;;;;;17.47;11.50;;;;;;;2.84;94.93;93885.66;5017543;28;20480;-80
2022/02/02 02:57:09;;;;;;;29.17;17.23;;;;;;;1.96;99.62;93874.53;4975849;28;20439;-80
2022/02/02 02:59:42;;;;;;;28.08;16.65;;;;;;;1.91;99.94;93878.34;4976168;28;20569;-79
2022/02/02 03:02:50;;;;;;;26.77;17.42;;;;;;;1.79;100.00;93865.34;4975690;28;20212;-79
2022/02/02 03:51:07;;;;;;;27.80;15.68;;;;;;;1.59;100.00;93852.91;4996382;28;20653;-79
2022/02/02 03:56:55;;;;;;;24.52;15.18;;;;;;;1.70;100.00;93865.94;5091476;28;20509;-78
2022/02/02 04:02:29;;;;;;;22.77;14.57;;;;;;;1.63;99.66;93849.19;5090560;28;20276;-77
2022/02/02 04:05:24;;;;;;;28.02;15.80;;;;;;;1.56;99.43;93855.69;5090921;28;20440;-78
2022/02/02 04:07:54;;;;;;;26.92;14.80;;;;;;;1.51;99.08;93860.34;5090426;28;20659;-77
2022/02/02 04:10:21;;;;;;;28.65;16.42;;;;;;;1.45;98.78;93860.75;5091068;28;20197;-78
2022/02/02 04:12:55;;;;;;;31.40;16.13;;;;;;;1.42;99.21;93863.50;5090447;28;20205;-79
2022/02/02 04:38:12;;;;;;;31.08;15.98;;;;;;;1.05;99.65;93868.50;5048302;28;20599;-77
2022/02/02 04:55:26;;;;;;;24.85;16.05;;;;;;;1.02;100.00;93878.19;4947431;29;20240;-80
2022/02/02 04:58:07;;;;;;;22.73;15.88;;;;;;;0.89;99.52;93873.84;4949530;29;20206;-79
2022/02/02 05:06:13;;;;;;;25.42;15.15;;;;;;;0.92;99.53;93877.97;4889761;29;20271;-78
2022/02/02 05:08:47;;;;;;;25.95;15.93;;;;;;;0.99;99.96;93876.66;4888870;29;20214;-79
2022/02/02 05:11:33;;;;;;;24.17;15.32;;;;;;;1.07;100.00;93879.56;4917985;29;20213;-79
2022/02/02 05:16:54;;;;;;;21.17;14.50;;;;;;;0.95;98.96;93882.13;5034307;28;20627;-81
2022/02/02 05:49:47;;;;;;;38.88;21.35;;;;;;;0.89;100.00;93902.25;4934641;29;20240;-78
2022/02/02 05:52:16;;;;;;;35.10;19.80;;;;;;;0.97;100.00;93903.50;4934627;29;20200;-79
2022/02/02 05:54:43;;;;;;;35.47;19.45;;;;;;;1.06;100.00;93915.81;4935277;29;20235;-78
2022/02/02 05:57:14;;;;;;;31.13;20.05;;;;;;;1.08;100.00;93912.22;4935819;29;20193;-79
2022/02/02 05:59:42;;;;;;;34.25;20.70;;;;;;;0.99;100.00;93901.66;5007585;28;20290;-79
2022/02/02 06:02:13;;;;;;;41.78;19.98;;;;;;;1.10;100.00;93912.94;5032946;28;20212;-80
2022/02/02 06:08:04;;;;;;;29.60;19.25;;;;;;;1.08;100.00;93924.31;5033219;28;20216;-79
2022/02/02 06:10:32;;;;;;;30.77;20.02;;;;;;;1.13;100.00;93927.41;5033071;28;20207;-79
2022/02/02 06:13:00;;;;;;;29.65;18.20;;;;;;;1.22;100.00;93935.44;5032770;28;20269;-79
2022/02/02 06:15:29;;;;;;;30.08;18.40;;;;;;;1.31;100.00;93946.09;5033071;28;20577;-81
2022/02/02 06:24:48;;;;;;;34.00;20.08;;;;;;;1.20;100.00;93942.44;5047093;28;20293;-79
2022/02/02 06:27:23;;;;;;;30.38;17.63;;;;;;;1.16;100.00;93943.56;5055110;28;20545;-79
2022/02/02 06:29:59;;;;;;;28.33;18.40;;;;;;;1.14;100.00;93940.22;5054607;28;20191;-78
2022/02/02 06:32:28;;;;;;;35.25;19.80;;;;;;;1.30;100.00;93954.78;5054472;28;20607;-79
2022/02/02 06:35:02;;;;;;;39.83;20.77;;;;;;;1.41;100.00;93962.66;5054213;28;20187;-79
2022/02/02 06:37:30;;;;;;;44.97;24.50;;;;;;;1.42;100.00;93959.97;5054265;28;20198;-78
2022/02/02 06:39:58;;;;;;;34.75;20.20;;;;;;;1.51;100.00;93961.16;5054696;28;20202;-79
2022/02/02 06:42:26;;;;;;;35.63;18.35;;;;;;;1.43;100.00;93964.22;5054348;28;20197;-79
2022/02/02 06:44:54;;;;;;;35.40;20.08;;;;;;;1.44;100.00;93965.03;5054730;28;20202;-79
2022/02/02 06:47:25;;;;;;;35.08;19.60;;;;;;;1.35;100.00;93960.47;5053987;28;20227;-80
2022/02/02 06:49:52;;;;;;;37.53;20.27;;;;;;;1.28;99.95;93960.03;5035942;28;20199;-79
2022/02/02 06:52:34;;;;;;;38.60;20.25;;;;;;;1.28;100.00;93961.78;5054397;28;20202;-79
2022/02/02 06:55:12;;;;;;;43.65;25.55;;;;;;;1.23;100.00;93960.34;5053663;28;22630;-80
2022/02/02 06:57:55;;;;;;;47.55;26.13;;;;;;;1.35;100.00;93955.31;5053845;28;20205;-79
2022/02/02 07:00:27;;;;;;;44.42;24.15;;;;;;;1.43;100.00;93963.38;5054300;28;20278;-80
2022/02/02 07:03:08;;;;;;;49.78;26.15;;;;;;;1.48;100.00;93969.94;5053804;28;20675;-79
2022/02/02 07:05:45;;;;;;;34.33;20.33;;;;;;;1.50;100.00;93957.75;5054278;28;20191;-79
2022/02/02 07:08:30;;;;;;;34.30;22.15;;;;;;;1.62;98.74;93963.88;5053745;28;20221;-79
2022/02/02 07:11:11;;;;;;;35.83;18.70;;;;;;;1.55;98.08;93978.13;5053950;28;20199;-78
2022/02/02 07:13:51;;;;;;;36.47;20.52;;;;;;;1.46;97.84;93965.81;5053790;28;20198;-79
2022/02/02 07:16:30;;;;;;;40.38;21.48;;;;;;;1.45;98.39;93975.31;5053954;28;20232;-78
2022/02/02 07:19:09;;;;;;;35.92;21.05;;;;;;;1.56;98.83;93972.03;5053342;28;20237;-79
2022/02/02 07:22:00;;;;;;;35.58;22.00;;;;;;;1.65;99.27;93980.94;5053949;28;20277;-79
2022/02/02 07:24:43;;;;;;;43.53;27.73;;;;;;;1.65;98.67;93958.50;5022922;28;20211;-81
2022/02/02 07:30:03;;;;;;;40.05;22.98;;;;;;;1.37;98.16;93979.28;5052430;28;20250;-81
2022/02/02 07:32:36;;;;;;;52.65;25.17;;;;;;;1.27;99.10;93971.31;5054238;28;20668;-82
2022/02/02 07:35:12;;;;;;;36.60;21.13;;;;;;;1.28;98.90;93977.31;5053534;28;20284;-83
2022/02/02 07:37:46;;;;;;;35.83;21.65;;;;;;;1.30;99.33;93970.28;5053640;28;20201;-83
2022/02/02 07:40:14;;;;;;;48.92;26.35;;;;;;;1.24;98.63;93971.50;5053818;28;20259;-81
2022/02/02 07:42:47;;;;;;;36.72;19.90;;;;;;;1.19;98.95;93976.13;5053261;28;20200;-80
2022/02/02 07:45:17;;;;;;;35.40;20.42;;;;;;;1.08;98.83;93981.97;5053383;28;20200;-83
2022/02/02 07:47:47;;;;;;;33.03;20.48;;;;;;;1.02;98.85;93977.19;5052956;28;20197;-81
2022/02/02 07:50:14;;;;;;;41.38;19.38;;;;;;;1.02;99.27;93971.19;5053350;28;20198;-80
2022/02/02 08:10:51;;;;;;;33.00;17.42;;;;;;;1.22;96.12;93945.75;5028983;28;20214;-80
2022/02/02 08:13:21;;;;;;;35.47;20.08;;;;;;;1.28;94.89;93959.22;5053158;28;20198;-80
2022/02/02 08:15:58;;;;;;;31.70;19.52;;;;;;;1.31;94.56;93966.75;5052941;28;20566;-81
2022/02/02 08:18:25;;;;;;;26.00;15.43;;;;;;;1.40;93.81;93972.16;5018604;28;20202;-79
2022/02/02 08:20:52;;;;;;;24.67;15.30;;;;;;;1.44;93.08;93975.38;5034422;28;20206;-80
2022/02/02 08:23:19;;;;;;;29.17;18.08;;;;;;;1.40;92.26;93961.00;5052828;28;20194;-82
2022/02/02 08:25:46;;;;;;;35.13;20.23;;;;;;;1.51;92.02;93963.75;5053265;28;20195;-79
2022/02/02 08:28:18;;;;;;;30.65;15.52;;;;;;;1.63;91.99;93962.94;5052744;28;20191;-79
2022/02/02 08:30:45;;;;;;;24.98;15.35;;;;;;;1.72;89.98;93967.50;5052823;28;20578;-78
2022/02/02 08:33:18;;;;;;;24.20;14.57;;;;;;;1.74;89.41;93977.78;5052719;28;20195;-79
2022/02/02 08:35:50;;;;;;;22.13;15.43;;;;;;;1.80;89.09;93972.19;5052939;28;20481;-78
2022/02/02 08:38:29;;;;;;;30.67;17.40;;;;;;;1.89;88.97;93974.16;5052635;28;20557;-78
2022/02/02 08:41:00;;;;;;;27.17;15.35;;;;;;;1.95;87.76;93973.75;5053550;28;20437;-78
2022/02/02 08:43:51;;;;;;;46.67;23.83;;;;;;;2.05;86.92;93974.00;5015079;28;20576;-81
2022/02/02 08:46:25;;;;;;;42.33;24.33;;;;;;;1.98;86.06;93968.38;5014342;28;20281;-78
2022/02/02 08:48:54;;;;;;;37.17;18.35;;;;;;;1.99;85.82;93964.03;5014453;28;20443;-78
2022/02/02 08:51:24;;;;;;;46.03;23.50;;;;;;;2.11;86.33;93978.75;5014311;28;20295;-79
2022/02/02 08:54:05;;;;;;;51.70;27.80;;;;;;;2.20;86.84;93972.13;5015216;28;20283;-78
2022/02/02 08:59:22;;;;;;;34.53;22.30;;;;;;;2.48;84.77;93977.94;4956161;29;20481;-78
2022/02/02 09:01:51;;;;;;;35.80;19.37;;;;;;;2.63;84.19;93975.22;4983584;28;20473;-81
2022/02/02 09:31:37;;;;;;;20.23;13.90;;;;;;;3.70;77.01;93974.47;4994902;28;20416;-84
2022/02/02 09:34:06;;;;;;;24.03;15.00;;;;;;;3.72;76.94;93974.34;4995498;28;20482;-85
2022/02/02 09:36:36;;;;;;;28.20;15.63;;;;;;;3.73;76.56;93978.59;5016867;28;20984;-86
2022/02/02 09:39:10;;;;;;;27.03;16.73;;;;;;;3.89;78.40;93973.13;5036855;28;20442;-86
2022/02/02 09:41:43;;;;;;;39.93;20.90;;;;;;;3.83;77.09;93971.81;5035767;28;20435;-84
2022/02/02 09:44:14;;;;;;;28.87;19.30;;;;;;;3.92;77.64;93972.91;5036054;28;20442;-85
2022/02/02 09:46:55;;;;;;;29.17;17.93;;;;;;;3.99;75.87;93972.34;5036167;28;20464;-78
2022/02/02 09:49:29;;;;;;;40.90;18.97;;;;;;;3.89;75.75;93973.13;5036330;28;20426;-79
2022/02/02 09:52:01;;;;;;;33.53;18.80;;;;;;;3.68;76.47;93975.53;5035497;28;21207;-78
2022/02/02 09:54:34;;;;;;;33.77;17.17;;;;;;;3.60;76.71;93962.28;5035082;28;20969;-80
2022/02/02 09:59:57;;;;;;;29.83;15.87;;;;;;;3.48;76.86;93960.59;4974146;28;20893;-81
2022/02/02 10:02:36;;;;;;;54.07;27.53;;;;;;;3.32;76.93;93958.25;4974197;28;20449;-80
2022/02/02 10:05:12;;;;;;;48.93;25.50;;;;;;;3.34;76.81;93943.41;4959352;28;20449;-79
2022/02/02 10:08:10;;;;;;;41.60;18.33;;;;;;;3.48;77.68;93943.28;4957847;28;21280;-79
2022/02/02 10:13:47;;;;;;;33.53;17.27;;;;;;;3.39;77.96;93954.28;4974232;28;20521;-80
2022/02/02 10:16:18;;;;;;;43.00;26.03;;;;;;;3.13;76.36;93943.19;4992388;28;20476;-79
2022/02/02 10:18:47;;;;;;;42.23;23.73;;;;;;;3.06;76.18;93953.16;4993383;28;20491;-80
2022/02/02 10:21:31;;;;;;;48.63;29.77;;;;;;;3.05;79.42;93948.91;4993474;28;20535;-80
2022/02/02 10:23:58;;;;;;;40.83;27.88;;;;;;;2.95;76.70;93954.88;4992426;28;20449;-79
2022/02/02 10:26:25;;;;;;;37.73;21.30;;;;;;;2.88;77.69;93948.44;4993292;28;20194;-78
2022/02/02 10:28:53;;;;;;;24.40;17.53;;;;;;;2.78;77.36;93951.69;4994070;28;20797;-79
2022/02/02 10:38:10;;;;;;;31.30;17.13;;;;;;;2.58;77.08;93949.63;5050687;28;20966;-78
2022/02/02 10:40:46;;;;;;;23.67;15.20;;;;;;;2.30;77.92;93955.88;5054182;28;20434;-79
2022/02/02 10:43:35;;;;;;;23.57;13.40;;;;;;;2.30;79.08;93955.03;5054527;28;20441;-80
2022/02/02 10:46:10;;;;;;;23.27;12.00;;;;;;;2.29;79.17;93953.38;5053947;28;20436;-79
2022/02/02 10:48:41;;;;;;;20.08;12.65;;;;;;;2.28;79.08;93949.13;5054500;28;20528;-81
2022/02/02 10:51:15;;;;;;;29.02;16.83;;;;;;;2.32;78.57;93946.25;5053914;28;20670;-79
2022/02/02 10:54:10;;;;;;;31.60;15.13;;;;;;;2.37;78.84;93949.34;5054251;28;20209;-79
2022/02/02 10:56:43;;;;;;;27.13;14.00;;;;;;;2.40;76.98;93940.56;5054397;28;20594;-79
2022/02/02 11:09:01;;;;;;;27.53;14.07;;;;;;;2.48;77.73;93943.44;5031702;28;20242;-79
2022/02/02 11:11:28;;;;;;;23.70;15.70;;;;;;;2.60;77.24;93933.97;5032129;28;20437;-81
2022/02/02 11:14:01;;;;;;;18.37;12.43;;;;;;;2.72;76.18;93938.34;5031655;28;20442;-79
2022/02/02 11:16:33;;;;;;;42.63;21.73;;;;;;;2.76;75.25;93935.41;5031215;28;20511;-79
2022/02/02 11:19:03;;;;;;;61.00;25.37;;;;;;;2.91;75.75;93928.34;5026841;28;20447;-80
2022/02/02 11:21:33;;;;;;;52.00;20.67;;;;;;;2.98;74.90;93941.69;5026052;28;21051;-79
2022/02/02 11:24:14;;;;;;;29.83;16.33;;;;;;;3.09;75.08;93939.16;5031474;28;20819;-79
2022/02/02 11:26:44;;;;;;;38.07;20.90;;;;;;;3.19;73.27;93944.53;5031586;28;20450;-79
2022/02/02 11:29:38;;;;;;;33.73;21.77;;;;;;;3.24;74.22;93937.25;5031308;28;20810;-79
2022/02/02 11:32:07;;;;;;;27.77;16.50;;;;;;;3.24;73.08;93934.66;5033187;28;20435;-79
2022/02/02 11:34:40;;;;;;;22.40;13.63;;;;;;;3.23;73.40;93943.38;5052916;28;20445;-78
2022/02/02 11:37:12;;;;;;;24.43;15.27;;;;;;;3.27;73.11;93924.06;5052067;28;20483;-78
2022/02/02 11:39:48;;;;;;;34.30;17.07;;;;;;;3.28;73.14;93920.53;5052122;28;20520;-78
2022/02/02 11:42:52;;;;;;;32.67;19.47;;;;;;;3.34;72.40;93927.88;5053383;28;21023;-78
2022/02/02 11:45:55;;;;;;;29.80;16.43;;;;;;;3.28;73.53;93928.31;5052696;28;20455;-79
2022/02/02 11:49:02;;;;;;;22.90;14.77;;;;;;;3.27;73.09;93930.09;5053497;28;20500;-79
2022/02/02 11:51:40;;;;;;;30.17;15.53;;;;;;;3.33;71.98;93913.25;4991374;28;20527;-81
2022/02/02 11:54:08;;;;;;;21.30;15.07;;;;;;;3.38;71.36;93911.16;4991647;28;20444;-81
2022/02/02 11:57:22;;;;;;;25.60;16.20;;;;;;;3.52;70.87;93916.16;4992085;28;20464;-81
2022/02/02 12:02:48;;;;;;;18.50;12.23;;;;;;;3.62;70.79;93919.72;4934809;29;20802;-80
2022/02/02 12:05:26;;;;;;;25.50;13.70;;;;;;;3.79;70.10;93920.28;4934447;29;20439;-80
2022/02/02 12:08:09;;;;;;;18.63;13.93;;;;;;;3.82;70.02;93917.44;4935304;29;20970;-81
2022/02/02 12:10:51;;;;;;;25.67;13.70;;;;;;;3.81;69.60;93908.00;4934105;29;20998;-81
2022/02/02 12:48:18;;;;;;;31.93;15.40;;;;;;;4.04;69.35;93920.91;5056276;28;20429;-79
2022/02/02 12:56:33;;;;;;;30.70;19.80;;;;;;;4.15;70.52;93914.91;5014315;28;20483;-80
2022/02/02 12:59:33;;;;;;;45.90;20.37;;;;;;;4.13;69.29;93916.81;5014490;28;20436;-80
2022/02/02 13:05:24;;;;;;;45.33;21.70;;;;;;;4.23;69.13;93914.34;5014262;28;21125;-80
2022/02/02 13:07:53;;;;;;;23.57;14.30;;;;;;;4.30;70.02;93915.50;5014493;28;20459;-81
2022/02/02 13:10:24;;;;;;;18.93;12.90;;;;;;;4.37;69.45;93921.09;5013112;28;20453;-80
2022/02/02 13:12:55;;;;;;;29.23;19.07;;;;;;;4.31;69.80;93917.16;5012791;28;20450;-81
2022/02/02 13:15:37;;;;;;;32.80;19.47;;;;;;;4.28;68.56;93918.22;4965418;28;20486;-81
2022/02/02 13:18:11;;;;;;;32.97;20.10;;;;;;;4.14;69.65;93900.28;5012865;28;20498;-81
2022/02/02 13:20:50;;;;;;;37.93;20.30;;;;;;;4.20;70.43;93914.56;5013090;28;20485;-80
2022/02/02 13:23:23;;;;;;;42.07;20.63;;;;;;;4.20;70.92;93907.59;5013041;28;20447;-81
2022/02/02 13:25:52;;;;;;;41.50;23.50;;;;;;;4.23;70.91;93909.97;5013941;28;20535;-81
2022/02/02 13:28:44;;;;;;;54.83;21.57;;;;;;;4.16;70.17;93898.41;4933643;28;20542;-81
2022/02/02 13:31:24;;;;;;;46.10;20.80;;;;;;;4.16;69.52;93897.56;5014055;28;20534;-81
2022/02/02 13:34:13;;;;;;;31.63;18.60;;;;;;;4.13;70.26;93897.81;5048330;28;20445;-80
2022/02/02 13:36:56;;;;;;;23.33;16.90;;;;;;;4.05;70.33;93895.81;5055618;28;20557;-80
2022/02/02 13:43:02;;;;;;;27.10;15.10;;;;;;;3.84;70.86;93903.41;5055580;28;20457;-81
2022/02/02 13:51:36;;;;;;;42.17;23.30;;;;;;;3.79;72.51;93902.13;5152739;27;20541;-80
2022/02/02 13:54:15;;;;;;;32.27;18.57;;;;;;;3.85;71.74;93899.06;5152119;27;20446;-79
2022/02/02 14:31:34;;;;;;;62.53;27.67;;;;;;;4.23;69.41;93919.53;5093545;28;21215;-81
2022/02/02 14:34:01;;;;;;;47.00;23.03;;;;;;;4.24;70.65;93916.81;5088450;28;20416;-80
2022/02/02 14:36:32;;;;;;;38.57;20.47;;;;;;;4.32;71.46;93919.66;5087816;28;20431;-80
2022/02/02 14:39:06;;;;;;;25.73;14.83;;;;;;;4.35;70.22;93922.03;5088007;28;20533;-81
2022/02/02 14:48:28;;;;;;;29.00;15.87;;;;;;;4.39;68.52;93919.19;5130591;28;20396;-83
2022/02/02 14:51:02;;;;;;;25.40;14.83;;;;;;;4.39;68.52;93919.19;5129219;28;20492;-79
2022/02/02 14:53:35;;;;;;;28.70;14.50;;;;;;;4.43;69.32;93907.63;5130437;27;20435;-78
2022/02/02 15:24:05;;;;;;;34.20;16.97;;;;;;;4.83;67.84;93924.38;5033522;28;20475;-77
2022/02/02 15:29:35;;;;;;;38.27;24.50;;;;;;;4.87;68.32;93924.97;5010092;28;20454;-78
2022/02/02 15:32:03;;;;;;;39.23;23.40;;;;;;;4.85;69.45;93927.69;4954054;28;20908;-79
2022/02/02 15:34:34;;;;;;;35.67;27.10;;;;;;;4.82;70.10;93921.91;4993975;28;20425;-78
2022/02/02 15:39:55;;;;;;;49.93;26.23;;;;;;;4.79;68.38;93933.38;4994136;28;20438;-78
2022/02/02 15:58:23;;;;;;;26.40;14.77;;;;;;;3.95;69.67;93954.50;5052621;28;20468;-78
2022/02/02 16:03:37;;;;;;;23.03;13.87;;;;;;;3.64;70.99;93954.16;5025349;28;20456;-77
2022/02/02 16:06:10;;;;;;;21.83;12.70;;;;;;;3.57;71.92;93955.56;5055457;28;20515;-78
2022/02/02 16:08:40;;;;;;;16.13;12.87;;;;;;;3.51;71.70;93957.78;5055798;28;21111;-78
2022/02/02 16:11:26;;;;;;;15.20;10.60;;;;;;;3.26;72.01;93956.94;5054887;28;20477;-78
2022/02/02 16:13:57;;;;;;;17.20;10.90;;;;;;;3.19;72.78;93957.50;5054104;28;20439;-78
2022/02/02 16:16:42;;;;;;;16.50;10.93;;;;;;;3.14;72.88;93956.97;5055043;28;20983;-78
2022/02/02 16:19:17;;;;;;;26.13;15.30;;;;;;;3.11;73.90;93958.84;5055360;28;20437;-76
2022/02/02 16:24:48;;;;;;;24.40;12.50;;;;;;;3.47;88.94;93964.94;5054389;28;21204;-80
2022/02/02 16:38:31;;;;;;;16.63;9.53;;;;;;;3.45;74.06;93972.00;4973426;28;20845;-79
2022/02/02 16:41:04;;;;;;;13.67;10.20;;;;;;;3.38;73.46;93986.34;4957414;28;20472;-79
2022/02/02 16:43:30;;;;;;;21.57;14.43;;;;;;;3.37;73.31;93984.69;4973830;28;20956;-79
2022/02/02 16:45:57;;;;;;;21.80;12.20;;;;;;;3.28;74.11;93982.75;4973234;28;20446;-78
2022/02/02 16:48:25;;;;;;;36.97;19.80;;;;;;;3.23;74.22;93985.69;4973179;28;20201;-79
2022/02/02 16:50:55;;;;;;;38.87;21.93;;;;;;;3.23;74.30;93988.28;4985601;28;20502;-79
2022/02/02 16:53:36;;;;;;;24.57;15.40;;;;;;;3.27;73.88;93983.69;5012170;28;20501;-79
2022/02/02 16:56:10;;;;;;;23.30;13.13;;;;;;;3.18;73.75;93989.50;5012065;28;20435;-79
2022/02/02 17:30:25;;;;;;;20.17;12.60;;;;;;;2.80;74.13;94011.16;5094208;28;20474;-79
2022/02/02 17:32:56;;;;;;;19.10;12.67;;;;;;;2.84;74.64;94015.19;5096426;28;20440;-79
2022/02/02 17:35:34;;;;;;;20.70;11.23;;;;;;;2.82;75.04;94017.06;5126719;27;20439;-79
2022/02/02 17:38:09;;;;;;;12.83;10.63;;;;;;;2.88;75.51;94015.78;5098508;28;20212;-79
2022/02/02 17:40:48;;;;;;;15.40;10.93;;;;;;;2.88;74.83;94010.63;5114091;28;20449;-78
2022/02/02 17:43:40;;;;;;;15.60;7.70;;;;;;;2.85;74.76;94006.47;5114562;28;20753;-80
2022/02/02 18:19:22;;;;;;;27.60;13.73;;;;;;;2.66;75.83;94032.00;4952983;29;20653;-78
2022/02/02 18:21:50;;;;;;;19.50;13.30;;;;;;;2.61;75.78;94040.09;4954726;28;20949;-81
2022/02/02 18:24:22;;;;;;;15.27;9.63;;;;;;;2.69;76.13;94047.31;4972117;28;20442;-78
2022/02/02 18:26:54;;;;;;;17.40;10.13;;;;;;;2.66;76.47;94050.13;5053512;28;20831;-79
2022/02/02 18:29:27;;;;;;;21.97;12.50;;;;;;;2.63;76.25;94052.94;5039197;28;20436;-79
2022/02/02 18:34:51;;;;;;;10.67;8.30;;;;;;;2.57;76.57;94061.09;4991512;28;20433;-79
2022/02/02 18:38:17;;;;;;;12.07;7.73;;;;;;;2.52;76.83;94061.41;4993622;28;20451;-78
2022/02/02 18:49:04;;;;;;;11.70;8.05;;;;;;;2.32;78.69;94065.34;4886476;29;20196;-78
2022/02/02 18:54:22;;;;;;;12.98;7.88;;;;;;;2.23;79.03;94071.09;4955841;28;20206;-78
2022/02/02 18:59:57;;;;;;;8.60;7.20;;;;;;;2.27;80.16;94072.53;4955128;29;20446;-79
2022/02/02 19:02:44;;;;;;;11.33;9.40;;;;;;;2.32;80.55;94091.22;4955980;29;20501;-78
2022/02/02 19:05:31;;;;;;;8.03;6.47;;;;;;;2.27;80.41;94079.47;4956066;28;20458;-79
2022/02/02 19:39:02;;;;;;;16.38;8.68;;;;;;;2.11;84.21;94100.38;5073441;28;20185;-80
2022/02/02 19:55:25;;;;;;;17.67;11.27;;;;;;;1.98;85.70;94108.06;4974427;28;20201;-78
2022/02/02 20:03:50;;;;;;;21.67;11.10;;;;;;;2.11;86.03;94114.13;4974511;28;20466;-79
2022/02/02 20:13:01;;;;;;;14.20;11.07;;;;;;;2.11;85.66;94123.66;5023048;28;20789;-81
2022/02/02 20:15:33;;;;;;;11.10;7.93;;;;;;;2.15;86.79;94132.88;5032789;28;20206;-79
2022/02/02 20:18:02;;;;;;;12.80;10.90;;;;;;;2.12;86.58;94135.66;5033307;28;20522;-79
2022/02/02 20:20:29;;;;;;;18.00;8.30;;;;;;;2.13;87.38;94124.38;5033042;28;20443;-80
2022/02/02 20:23:01;;;;;;;13.60;8.40;;;;;;;2.18;87.11;94130.09;5032431;28;20438;-79
2022/02/02 20:25:28;;;;;;;8.50;6.83;;;;;;;2.14;87.62;94124.28;4985955;28;20446;-80
2022/02/02 20:28:05;;;;;;;14.70;9.23;;;;;;;2.10;87.71;94127.19;5048811;28;20437;-80
2022/02/02 20:30:35;;;;;;;9.50;8.30;;;;;;;2.09;88.37;94120.34;5072691;28;20229;-80
2022/02/02 20:33:02;;;;;;;12.18;7.00;;;;;;;2.14;87.95;94126.88;5105893;28;20193;-80
2022/02/02 20:35:29;;;;;;;9.17;6.80;;;;;;;2.13;88.13;94126.97;5115422;28;20185;-79
2022/02/02 20:37:56;;;;;;;16.83;8.23;;;;;;;2.16;87.75;94137.13;5113865;28;20439;-79
2022/02/02 20:40:24;;;;;;;10.00;7.43;;;;;;;2.15;88.52;94123.34;5113868;28;20956;-83
2022/02/02 20:43:02;;;;;;;8.37;6.27;;;;;;;2.15;88.96;94122.53;5111583;28;20193;-79
2022/02/02 21:05:09;;;;;;;12.52;8.85;;;;;;;2.22;87.68;94116.03;5114193;28;20476;-78
2022/02/02 21:07:52;;;;;;;21.03;10.87;;;;;;;2.20;87.23;94117.88;5086117;28;20284;-78
2022/02/02 21:10:23;;;;;;;8.03;6.13;;;;;;;2.10;86.96;94115.06;5114548;28;20917;-78
2022/02/02 21:15:37;;;;;;;21.58;10.30;;;;;;;2.08;86.44;94123.84;5114152;28;20176;-78
2022/02/02 21:18:09;;;;;;;10.70;8.10;;;;;;;2.15;87.69;94114.75;5114753;28;20208;-79
2022/02/02 21:20:47;;;;;;;16.60;9.63;;;;;;;2.12;86.69;94120.97;5114050;28;20231;-78
2022/02/02 21:23:28;;;;;;;11.60;7.82;;;;;;;2.16;86.39;94117.25;5113888;28;20644;-78
2022/02/02 21:28:38;;;;;;;14.52;8.73;;;;;;;2.12;86.08;94120.13;5112928;28;20279;-81
2022/02/02 21:31:06;;;;;;;14.60;8.90;;;;;;;2.12;86.56;94120.13;5114531;28;20217;-83
2022/02/02 21:33:36;;;;;;;10.10;8.52;;;;;;;2.17;85.71;94125.84;5114004;28;20545;-79
2022/02/02 21:36:08;;;;;;;10.43;7.67;;;;;;;2.16;86.18;94119.84;5114771;28;20207;-78
2022/02/02 21:38:37;;;;;;;14.90;8.80;;;;;;;2.21;85.76;94121.28;5114217;27;21328;-79
2022/02/02 21:41:04;;;;;;;16.27;8.82;;;;;;;2.21;85.18;94119.53;5114664;28;20476;-78